sensor_id;sensor_type;location;lat;lon;timestamp;temperature;humidity
8664;DHT22;4369;47.842;13.096;2022-09-27T00:01:14;12.00;99.90
8664;DHT22;4369;47.842;13.096;2022-09-27T00:03:42;12.00;99.90
8664;DHT22;4369;47.842;13.096;2022-09-27T00:06:12;12.00;99.90
8664;DHT22;4369;47.842;13.096;2022-09-27T00:08:40;12.10;99.90
8664;DHT22;4369;47.842;13.096;2022-09-27T00:11:11;12.10;99.90
8664;DHT22;4369;47.842;13.096;2022-09-27T00:13:41;12.10;99.90
8664;DHT22;4369;47.842;13.096;2022-09-27T00:16:10;12.10;99.90
8664;DHT22;4369;47.842;13.096;2022-09-27T00:18:37;12.20;99.90
8664;DHT22;4369;47.842;13.096;2022-09-27T00:21:05;12.20;99.90
8664;DHT22;4369;47.842;13.096;2022-09-27T00:23:33;12.20;99.90
8664;DHT22;4369;47.842;13.096;2022-09-27T00:26:00;12.20;99.90
8664;DHT22;4369;47.842;13.096;2022-09-27T00:28:27;12.20;99.90
8664;DHT22;4369;47.842;13.096;2022-09-27T00:30:55;12.20;99.90
8664;DHT22;4369;47.842;13.096;2022-09-27T00:33:24;12.10;99.90
8664;DHT22;4369;47.842;13.096;2022-09-27T00:35:51;12.10;99.90
8664;DHT22;4369;47.842;13.096;2022-09-27T00:38:18;12.10;99.90
8664;DHT22;4369;47.842;13.096;2022-09-27T00:40:45;12.20;99.90
8664;DHT22;4369;47.842;13.096;2022-09-27T00:43:16;12.20;99.90
8664;DHT22;4369;47.842;13.096;2022-09-27T00:45:47;12.20;99.90
8664;DHT22;4369;47.842;13.096;2022-09-27T00:48:17;12.20;99.90
8664;DHT22;4369;47.842;13.096;2022-09-27T00:50:49;12.20;99.90
8664;DHT22;4369;47.842;13.096;2022-09-27T00:53:21;12.20;99.90
8664;DHT22;4369;47.842;13.096;2022-09-27T00:55:52;12.20;99.90
8664;DHT22;4369;47.842;13.096;2022-09-27T00:58:23;12.20;99.90
8664;DHT22;4369;47.842;13.096;2022-09-27T01:00:54;12.20;99.90
8664;DHT22;4369;47.842;13.096;2022-09-27T01:03:27;12.10;99.90
8664;DHT22;4369;47.842;13.096;2022-09-27T01:05:58;12.10;99.90
8664;DHT22;4369;47.842;13.096;2022-09-27T01:08:25;12.10;99.90
8664;DHT22;4369;47.842;13.096;2022-09-27T01:11:04;12.20;99.90
8664;DHT22;4369;47.842;13.096;2022-09-27T01:13:40;12.10;99.90
8664;DHT22;4369;47.842;13.096;2022-09-27T01:16:15;12.20;99.90
8664;DHT22;4369;47.842;13.096;2022-09-27T01:18:51;12.20;99.90
8664;DHT22;4369;47.842;13.096;2022-09-27T01:21:44;12.10;99.90
8664;DHT22;4369;47.842;13.096;2022-09-27T01:24:46;12.10;99.90
8664;DHT22;4369;47.842;13.096;2022-09-27T01:27:45;12.10;99.90
8664;DHT22;4369;47.842;13.096;2022-09-27T01:30:21;12.10;99.90
8664;DHT22;4369;47.842;13.096;2022-09-27T01:32:54;12.10;99.90
8664;DHT22;4369;47.842;13.096;2022-09-27T01:35:33;12.10;99.90
8664;DHT22;4369;47.842;13.096;2022-09-27T01:38:08;12.00;99.90
8664;DHT22;4369;47.842;13.096;2022-09-27T01:40:42;12.10;99.90
8664;DHT22;4369;47.842;13.096;2022-09-27T01:43:16;12.10;99.90
8664;DHT22;4369;47.842;13.096;2022-09-27T01:45:49;12.00;99.90
8664;DHT22;4369;47.842;13.096;2022-09-27T01:48:19;12.00;99.90
8664;DHT22;4369;47.842;13.096;2022-09-27T01:50:51;11.90;99.90
8664;DHT22;4369;47.842;13.096;2022-09-27T01:53:22;11.70;99.90
8664;DHT22;4369;47.842;13.096;2022-09-27T01:55:52;11.60;99.90
8664;DHT22;4369;47.842;13.096;2022-09-27T01:58:25;11.40;99.90
8664;DHT22;4369;47.842;13.096;2022-09-27T02:00:54;11.50;99.90
8664;DHT22;4369;47.842;13.096;2022-09-27T02:03:23;11.50;99.90
8664;DHT22;4369;47.842;13.096;2022-09-27T02:05:53;11.60;99.90
8664;DHT22;4369;47.842;13.096;2022-09-27T02:08:27;11.50;99.90
8664;DHT22;4369;47.842;13.096;2022-09-27T02:10:58;11.50;99.90
8664;DHT22;4369;47.842;13.096;2022-09-27T02:13:32;11.40;99.90
8664;DHT22;4369;47.842;13.096;2022-09-27T02:16:09;11.40;99.90
8664;DHT22;4369;47.842;13.096;2022-09-27T02:18:50;11.40;99.90
8664;DHT22;4369;47.842;13.096;2022-09-27T02:21:19;11.40;99.90
8664;DHT22;4369;47.842;13.096;2022-09-27T02:23:49;11.40;99.90
8664;DHT22;4369;47.842;13.096;2022-09-27T02:26:21;11.50;99.90
8664;DHT22;4369;47.842;13.096;2022-09-27T02:28:53;11.60;99.90
8664;DHT22;4369;47.842;13.096;2022-09-27T02:31:23;11.60;99.90
8664;DHT22;4369;47.842;13.096;2022-09-27T02:33:53;11.60;99.90
8664;DHT22;4369;47.842;13.096;2022-09-27T02:36:21;11.60;99.90
8664;DHT22;4369;47.842;13.096;2022-09-27T02:38:48;11.70;99.90
8664;DHT22;4369;47.842;13.096;2022-09-27T02:41:17;11.70;99.90
8664;DHT22;4369;47.842;13.096;2022-09-27T02:43:47;11.70;99.90
8664;DHT22;4369;47.842;13.096;2022-09-27T02:46:28;11.60;99.90
8664;DHT22;4369;47.842;13.096;2022-09-27T02:49:06;11.60;99.90
8664;DHT22;4369;47.842;13.096;2022-09-27T02:51:49;11.60;99.90
8664;DHT22;4369;47.842;13.096;2022-09-27T02:54:25;11.70;99.90
8664;DHT22;4369;47.842;13.096;2022-09-27T02:57:03;11.70;99.90
8664;DHT22;4369;47.842;13.096;2022-09-27T02:59:43;11.70;99.90
8664;DHT22;4369;47.842;13.096;2022-09-27T03:02:20;11.70;99.90
8664;DHT22;4369;47.842;13.096;2022-09-27T03:04:54;11.70;99.90
8664;DHT22;4369;47.842;13.096;2022-09-27T03:07:22;11.60;99.90
8664;DHT22;4369;47.842;13.096;2022-09-27T03:09:51;11.50;99.90
8664;DHT22;4369;47.842;13.096;2022-09-27T03:12:19;11.50;99.90
8664;DHT22;4369;47.842;13.096;2022-09-27T03:14:50;11.40;99.90
8664;DHT22;4369;47.842;13.096;2022-09-27T03:17:18;11.50;99.90
8664;DHT22;4369;47.842;13.096;2022-09-27T03:19:45;11.50;99.90
8664;DHT22;4369;47.842;13.096;2022-09-27T03:22:12;11.50;99.90
8664;DHT22;4369;47.842;13.096;2022-09-27T03:24:39;11.50;99.90
8664;DHT22;4369;47.842;13.096;2022-09-27T03:27:07;11.50;99.90
8664;DHT22;4369;47.842;13.096;2022-09-27T03:29:34;11.50;99.90
8664;DHT22;4369;47.842;13.096;2022-09-27T03:32:01;11.50;99.90
8664;DHT22;4369;47.842;13.096;2022-09-27T03:34:30;11.60;99.90
8664;DHT22;4369;47.842;13.096;2022-09-27T03:36:56;11.60;99.90
8664;DHT22;4369;47.842;13.096;2022-09-27T03:39:23;11.70;99.90
8664;DHT22;4369;47.842;13.096;2022-09-27T03:41:50;11.70;99.90
8664;DHT22;4369;47.842;13.096;2022-09-27T03:44:17;11.80;99.90
8664;DHT22;4369;47.842;13.096;2022-09-27T03:46:44;11.80;99.90
8664;DHT22;4369;47.842;13.096;2022-09-27T03:49:11;11.80;99.90
8664;DHT22;4369;47.842;13.096;2022-09-27T03:51:39;11.80;99.90
8664;DHT22;4369;47.842;13.096;2022-09-27T03:54:07;11.80;99.90
8664;DHT22;4369;47.842;13.096;2022-09-27T03:56:33;11.80;99.90
8664;DHT22;4369;47.842;13.096;2022-09-27T03:59:00;11.80;99.90
8664;DHT22;4369;47.842;13.096;2022-09-27T04:01:28;11.80;99.90
8664;DHT22;4369;47.842;13.096;2022-09-27T04:03:55;11.70;99.90
8664;DHT22;4369;47.842;13.096;2022-09-27T04:06:21;11.70;99.90
8664;DHT22;4369;47.842;13.096;2022-09-27T04:08:50;11.70;99.90
8664;DHT22;4369;47.842;13.096;2022-09-27T04:11:16;11.70;99.90
8664;DHT22;4369;47.842;13.096;2022-09-27T04:13:43;11.70;99.90
8664;DHT22;4369;47.842;13.096;2022-09-27T04:16:10;11.60;99.90
8664;DHT22;4369;47.842;13.096;2022-09-27T04:18:37;11.60;99.90
8664;DHT22;4369;47.842;13.096;2022-09-27T04:21:04;11.50;99.90
8664;DHT22;4369;47.842;13.096;2022-09-27T04:23:31;11.50;99.90
8664;DHT22;4369;47.842;13.096;2022-09-27T04:25:59;11.50;99.90
8664;DHT22;4369;47.842;13.096;2022-09-27T04:28:26;11.50;99.90
8664;DHT22;4369;47.842;13.096;2022-09-27T04:30:54;11.40;99.90
8664;DHT22;4369;47.842;13.096;2022-09-27T04:33:21;11.20;99.90
8664;DHT22;4369;47.842;13.096;2022-09-27T04:35:48;11.30;99.90
8664;DHT22;4369;47.842;13.096;2022-09-27T04:38:33;11.40;99.90
8664;DHT22;4369;47.842;13.096;2022-09-27T04:41:01;11.30;99.90
8664;DHT22;4369;47.842;13.096;2022-09-27T04:43:28;11.30;99.90
8664;DHT22;4369;47.842;13.096;2022-09-27T04:45:55;11.30;99.90
8664;DHT22;4369;47.842;13.096;2022-09-27T04:48:22;11.20;99.90
8664;DHT22;4369;47.842;13.096;2022-09-27T04:50:55;11.20;99.90
8664;DHT22;4369;47.842;13.096;2022-09-27T04:53:22;11.30;99.90
8664;DHT22;4369;47.842;13.096;2022-09-27T04:55:51;11.40;99.90
8664;DHT22;4369;47.842;13.096;2022-09-27T04:58:19;11.30;99.90
8664;DHT22;4369;47.842;13.096;2022-09-27T05:00:47;11.20;99.90
8664;DHT22;4369;47.842;13.096;2022-09-27T05:03:14;11.20;99.90
8664;DHT22;4369;47.842;13.096;2022-09-27T05:05:41;11.10;99.90
8664;DHT22;4369;47.842;13.096;2022-09-27T05:08:08;11.00;99.90
8664;DHT22;4369;47.842;13.096;2022-09-27T05:10:35;11.10;99.90
8664;DHT22;4369;47.842;13.096;2022-09-27T05:13:02;11.10;99.90
8664;DHT22;4369;47.842;13.096;2022-09-27T05:15:30;11.10;99.90
8664;DHT22;4369;47.842;13.096;2022-09-27T05:17:58;11.10;99.90
8664;DHT22;4369;47.842;13.096;2022-09-27T05:20:27;11.10;99.90
8664;DHT22;4369;47.842;13.096;2022-09-27T05:22:53;11.10;99.90
8664;DHT22;4369;47.842;13.096;2022-09-27T05:25:20;11.00;99.90
8664;DHT22;4369;47.842;13.096;2022-09-27T05:27:48;10.90;99.90
8664;DHT22;4369;47.842;13.096;2022-09-27T05:30:15;10.70;99.90
8664;DHT22;4369;47.842;13.096;2022-09-27T05:32:44;10.70;99.90
8664;DHT22;4369;47.842;13.096;2022-09-27T05:35:13;10.50;99.90
8664;DHT22;4369;47.842;13.096;2022-09-27T05:37:42;10.40;99.90
8664;DHT22;4369;47.842;13.096;2022-09-27T05:40:09;10.30;99.90
8664;DHT22;4369;47.842;13.096;2022-09-27T05:42:37;10.20;99.90
8664;DHT22;4369;47.842;13.096;2022-09-27T05:45:05;10.30;99.90
8664;DHT22;4369;47.842;13.096;2022-09-27T05:47:32;10.10;99.90
8664;DHT22;4369;47.842;13.096;2022-09-27T05:50:01;10.20;99.90
8664;DHT22;4369;47.842;13.096;2022-09-27T05:52:27;10.20;99.90
8664;DHT22;4369;47.842;13.096;2022-09-27T05:54:54;10.30;99.90
8664;DHT22;4369;47.842;13.096;2022-09-27T05:57:22;10.40;99.90
8664;DHT22;4369;47.842;13.096;2022-09-27T05:59:49;10.40;99.90
8664;DHT22;4369;47.842;13.096;2022-09-27T06:02:16;10.50;99.90
8664;DHT22;4369;47.842;13.096;2022-09-27T06:04:45;10.50;99.90
8664;DHT22;4369;47.842;13.096;2022-09-27T06:07:13;10.50;99.90
8664;DHT22;4369;47.842;13.096;2022-09-27T06:09:40;10.60;99.90
8664;DHT22;4369;47.842;13.096;2022-09-27T06:12:08;10.60;99.90
8664;DHT22;4369;47.842;13.096;2022-09-27T06:14:36;10.80;99.90
8664;DHT22;4369;47.842;13.096;2022-09-27T06:17:04;10.80;99.90
8664;DHT22;4369;47.842;13.096;2022-09-27T06:19:30;10.90;99.90
8664;DHT22;4369;47.842;13.096;2022-09-27T06:21:57;10.80;99.90
8664;DHT22;4369;47.842;13.096;2022-09-27T06:24:25;10.90;99.90
8664;DHT22;4369;47.842;13.096;2022-09-27T06:26:52;10.70;99.90
8664;DHT22;4369;47.842;13.096;2022-09-27T06:29:19;10.60;99.90
8664;DHT22;4369;47.842;13.096;2022-09-27T06:31:46;10.30;99.90
8664;DHT22;4369;47.842;13.096;2022-09-27T06:34:13;10.30;99.90
8664;DHT22;4369;47.842;13.096;2022-09-27T06:36:41;10.30;99.90
8664;DHT22;4369;47.842;13.096;2022-09-27T06:39:07;10.30;99.90
8664;DHT22;4369;47.842;13.096;2022-09-27T06:41:36;10.30;99.90
8664;DHT22;4369;47.842;13.096;2022-09-27T06:44:02;10.20;99.90
8664;DHT22;4369;47.842;13.096;2022-09-27T06:46:29;10.20;99.90
8664;DHT22;4369;47.842;13.096;2022-09-27T06:48:56;10.30;99.90
8664;DHT22;4369;47.842;13.096;2022-09-27T06:51:23;10.40;99.90
8664;DHT22;4369;47.842;13.096;2022-09-27T06:53:51;10.40;99.90
8664;DHT22;4369;47.842;13.096;2022-09-27T06:56:18;10.40;99.90
8664;DHT22;4369;47.842;13.096;2022-09-27T06:58:46;10.40;99.90
8664;DHT22;4369;47.842;13.096;2022-09-27T07:01:30;10.40;99.90
8664;DHT22;4369;47.842;13.096;2022-09-27T07:03:57;10.30;99.90
8664;DHT22;4369;47.842;13.096;2022-09-27T07:06:24;10.40;99.90
8664;DHT22;4369;47.842;13.096;2022-09-27T07:08:52;10.40;99.90
8664;DHT22;4369;47.842;13.096;2022-09-27T07:11:19;10.40;99.90
8664;DHT22;4369;47.842;13.096;2022-09-27T07:13:49;10.50;99.90
8664;DHT22;4369;47.842;13.096;2022-09-27T07:16:16;10.40;99.90
8664;DHT22;4369;47.842;13.096;2022-09-27T07:18:43;10.40;99.90
8664;DHT22;4369;47.842;13.096;2022-09-27T07:21:10;10.40;99.90
8664;DHT22;4369;47.842;13.096;2022-09-27T07:23:38;10.60;99.90
8664;DHT22;4369;47.842;13.096;2022-09-27T07:26:05;10.50;99.90
8664;DHT22;4369;47.842;13.096;2022-09-27T07:28:33;10.60;99.90
8664;DHT22;4369;47.842;13.096;2022-09-27T07:31:02;10.60;99.90
8664;DHT22;4369;47.842;13.096;2022-09-27T07:33:29;10.70;99.90
8664;DHT22;4369;47.842;13.096;2022-09-27T07:35:56;10.80;99.90
8664;DHT22;4369;47.842;13.096;2022-09-27T07:38:23;10.90;99.90
8664;DHT22;4369;47.842;13.096;2022-09-27T07:40:50;11.10;99.90
8664;DHT22;4369;47.842;13.096;2022-09-27T07:43:17;11.10;99.90
8664;DHT22;4369;47.842;13.096;2022-09-27T07:45:45;11.10;99.90
8664;DHT22;4369;47.842;13.096;2022-09-27T07:48:14;11.20;99.90
8664;DHT22;4369;47.842;13.096;2022-09-27T07:50:42;11.40;99.90
8664;DHT22;4369;47.842;13.096;2022-09-27T07:53:09;11.50;99.90
8664;DHT22;4369;47.842;13.096;2022-09-27T07:55:38;11.50;99.90
8664;DHT22;4369;47.842;13.096;2022-09-27T07:58:06;11.40;99.90
8664;DHT22;4369;47.842;13.096;2022-09-27T08:00:34;11.50;99.90
8664;DHT22;4369;47.842;13.096;2022-09-27T08:03:04;11.50;99.90
8664;DHT22;4369;47.842;13.096;2022-09-27T08:05:33;11.50;99.90
8664;DHT22;4369;47.842;13.096;2022-09-27T08:08:00;11.60;99.90
8664;DHT22;4369;47.842;13.096;2022-09-27T08:10:28;11.70;99.90
8664;DHT22;4369;47.842;13.096;2022-09-27T08:12:56;11.60;99.90
8664;DHT22;4369;47.842;13.096;2022-09-27T08:15:23;11.60;99.90
8664;DHT22;4369;47.842;13.096;2022-09-27T08:17:50;11.70;99.90
8664;DHT22;4369;47.842;13.096;2022-09-27T08:20:17;11.70;99.90
8664;DHT22;4369;47.842;13.096;2022-09-27T08:22:46;11.70;99.90
8664;DHT22;4369;47.842;13.096;2022-09-27T08:25:13;11.50;99.90
8664;DHT22;4369;47.842;13.096;2022-09-27T08:27:41;11.50;99.90
8664;DHT22;4369;47.842;13.096;2022-09-27T08:30:08;11.50;99.90
8664;DHT22;4369;47.842;13.096;2022-09-27T08:32:35;11.60;99.90
8664;DHT22;4369;47.842;13.096;2022-09-27T08:35:04;11.70;99.90
8664;DHT22;4369;47.842;13.096;2022-09-27T08:37:31;11.90;99.90
8664;DHT22;4369;47.842;13.096;2022-09-27T08:40:00;11.90;99.90
8664;DHT22;4369;47.842;13.096;2022-09-27T08:42:33;11.90;99.90
8664;DHT22;4369;47.842;13.096;2022-09-27T08:45:11;12.00;99.90
8664;DHT22;4369;47.842;13.096;2022-09-27T08:47:42;12.10;99.90
8664;DHT22;4369;47.842;13.096;2022-09-27T08:50:20;12.10;99.90
8664;DHT22;4369;47.842;13.096;2022-09-27T08:52:52;12.10;99.90
8664;DHT22;4369;47.842;13.096;2022-09-27T08:55:29;12.00;99.90
8664;DHT22;4369;47.842;13.096;2022-09-27T08:57:58;11.80;99.90
8664;DHT22;4369;47.842;13.096;2022-09-27T09:00:27;11.80;99.90
8664;DHT22;4369;47.842;13.096;2022-09-27T09:02:55;11.90;99.90
8664;DHT22;4369;47.842;13.096;2022-09-27T09:05:27;11.90;99.90
8664;DHT22;4369;47.842;13.096;2022-09-27T09:11:00;12.00;99.90
8664;DHT22;4369;47.842;13.096;2022-09-27T09:16:54;12.40;99.90
8664;DHT22;4369;47.842;13.096;2022-09-27T09:19:41;12.90;99.90
8664;DHT22;4369;47.842;13.096;2022-09-27T09:22:24;13.00;99.90
8664;DHT22;4369;47.842;13.096;2022-09-27T09:25:20;13.00;99.90
8664;DHT22;4369;47.842;13.096;2022-09-27T09:27:53;13.00;99.90
8664;DHT22;4369;47.842;13.096;2022-09-27T09:30:22;12.90;99.90
8664;DHT22;4369;47.842;13.096;2022-09-27T09:33:09;12.90;99.90
8664;DHT22;4369;47.842;13.096;2022-09-27T09:35:41;13.00;99.90
8664;DHT22;4369;47.842;13.096;2022-09-27T09:38:12;13.00;99.90
8664;DHT22;4369;47.842;13.096;2022-09-27T09:40:44;12.90;99.90
8664;DHT22;4369;47.842;13.096;2022-09-27T09:43:17;12.80;99.90
8664;DHT22;4369;47.842;13.096;2022-09-27T09:45:48;12.90;99.90
8664;DHT22;4369;47.842;13.096;2022-09-27T09:48:23;13.00;99.90
8664;DHT22;4369;47.842;13.096;2022-09-27T09:50:55;13.00;99.90
8664;DHT22;4369;47.842;13.096;2022-09-27T09:53:38;12.80;99.90
8664;DHT22;4369;47.842;13.096;2022-09-27T09:56:10;12.70;99.90
8664;DHT22;4369;47.842;13.096;2022-09-27T09:58:45;12.70;99.90
8664;DHT22;4369;47.842;13.096;2022-09-27T10:01:17;12.90;99.90
8664;DHT22;4369;47.842;13.096;2022-09-27T10:03:45;12.90;99.90
8664;DHT22;4369;47.842;13.096;2022-09-27T10:06:13;13.00;99.90
8664;DHT22;4369;47.842;13.096;2022-09-27T10:08:41;13.00;99.90
8664;DHT22;4369;47.842;13.096;2022-09-27T10:11:17;12.90;99.90
8664;DHT22;4369;47.842;13.096;2022-09-27T10:13:46;12.90;99.90
8664;DHT22;4369;47.842;13.096;2022-09-27T10:16:15;13.00;99.90
8664;DHT22;4369;47.842;13.096;2022-09-27T10:18:43;12.80;99.90
8664;DHT22;4369;47.842;13.096;2022-09-27T10:21:14;12.90;99.90
8664;DHT22;4369;47.842;13.096;2022-09-27T10:24:12;13.00;99.90
8664;DHT22;4369;47.842;13.096;2022-09-27T10:26:41;12.40;99.90
8664;DHT22;4369;47.842;13.096;2022-09-27T10:29:22;12.20;99.90
8664;DHT22;4369;47.842;13.096;2022-09-27T10:31:50;12.10;99.90
8664;DHT22;4369;47.842;13.096;2022-09-27T10:34:24;11.80;99.90
8664;DHT22;4369;47.842;13.096;2022-09-27T10:37:04;11.40;99.90
8664;DHT22;4369;47.842;13.096;2022-09-27T10:39:32;11.20;99.90
8664;DHT22;4369;47.842;13.096;2022-09-27T10:42:00;11.10;99.90
8664;DHT22;4369;47.842;13.096;2022-09-27T10:44:29;11.10;99.90
8664;DHT22;4369;47.842;13.096;2022-09-27T10:47:00;11.10;99.90
8664;DHT22;4369;47.842;13.096;2022-09-27T10:49:33;11.20;99.90
8664;DHT22;4369;47.842;13.096;2022-09-27T10:52:02;11.00;99.90
8664;DHT22;4369;47.842;13.096;2022-09-27T10:54:32;10.90;99.90
8664;DHT22;4369;47.842;13.096;2022-09-27T10:57:01;11.00;99.90
8664;DHT22;4369;47.842;13.096;2022-09-27T10:59:33;11.10;99.90
8664;DHT22;4369;47.842;13.096;2022-09-27T11:02:02;11.30;99.90
8664;DHT22;4369;47.842;13.096;2022-09-27T11:04:31;11.30;99.90
8664;DHT22;4369;47.842;13.096;2022-09-27T11:07:12;11.30;99.90
8664;DHT22;4369;47.842;13.096;2022-09-27T11:09:51;11.10;99.90
8664;DHT22;4369;47.842;13.096;2022-09-27T11:12:20;11.50;99.90
8664;DHT22;4369;47.842;13.096;2022-09-27T11:14:55;11.70;99.90
8664;DHT22;4369;47.842;13.096;2022-09-27T11:17:31;11.80;99.90
8664;DHT22;4369;47.842;13.096;2022-09-27T11:20:20;11.90;99.90
8664;DHT22;4369;47.842;13.096;2022-09-27T11:25:49;11.70;99.90
8664;DHT22;4369;47.842;13.096;2022-09-27T11:28:30;11.70;99.90
8664;DHT22;4369;47.842;13.096;2022-09-27T11:31:07;11.60;99.90
8664;DHT22;4369;47.842;13.096;2022-09-27T11:34:11;11.50;99.90
8664;DHT22;4369;47.842;13.096;2022-09-27T11:36:51;11.80;99.90
8664;DHT22;4369;47.842;13.096;2022-09-27T11:39:27;11.70;99.90
8664;DHT22;4369;47.842;13.096;2022-09-27T11:42:09;11.90;99.90
8664;DHT22;4369;47.842;13.096;2022-09-27T11:44:49;11.70;99.90
8664;DHT22;4369;47.842;13.096;2022-09-27T11:47:27;11.60;99.90
8664;DHT22;4369;47.842;13.096;2022-09-27T11:53:07;11.30;99.90
8664;DHT22;4369;47.842;13.096;2022-09-27T11:55:44;11.30;99.90
8664;DHT22;4369;47.842;13.096;2022-09-27T11:58:19;11.30;99.90
8664;DHT22;4369;47.842;13.096;2022-09-27T12:01:00;11.40;99.90
8664;DHT22;4369;47.842;13.096;2022-09-27T12:03:43;11.50;99.90
8664;DHT22;4369;47.842;13.096;2022-09-27T12:06:16;11.60;99.90
8664;DHT22;4369;47.842;13.096;2022-09-27T12:08:53;11.60;99.90
8664;DHT22;4369;47.842;13.096;2022-09-27T12:11:26;11.70;99.90
8664;DHT22;4369;47.842;13.096;2022-09-27T12:13:58;11.50;99.90
8664;DHT22;4369;47.842;13.096;2022-09-27T12:16:27;11.60;99.90
8664;DHT22;4369;47.842;13.096;2022-09-27T12:18:57;11.50;99.90
8664;DHT22;4369;47.842;13.096;2022-09-27T12:21:26;11.30;99.90
8664;DHT22;4369;47.842;13.096;2022-09-27T12:23:56;11.40;99.90
8664;DHT22;4369;47.842;13.096;2022-09-27T12:26:26;11.70;99.90
8664;DHT22;4369;47.842;13.096;2022-09-27T12:28:57;11.90;99.90
8664;DHT22;4369;47.842;13.096;2022-09-27T12:31:29;12.20;99.90
8664;DHT22;4369;47.842;13.096;2022-09-27T12:36:29;12.20;99.90
8664;DHT22;4369;47.842;13.096;2022-09-27T12:39:03;12.50;99.90
8664;DHT22;4369;47.842;13.096;2022-09-27T12:41:35;12.80;99.90
8664;DHT22;4369;47.842;13.096;2022-09-27T12:44:04;13.20;99.90
8664;DHT22;4369;47.842;13.096;2022-09-27T12:46:38;13.90;99.90
8664;DHT22;4369;47.842;13.096;2022-09-27T12:49:13;15.00;99.90
8664;DHT22;4369;47.842;13.096;2022-09-27T12:51:46;17.20;99.90
8664;DHT22;4369;47.842;13.096;2022-09-27T12:57:17;21.10;93.40
8664;DHT22;4369;47.842;13.096;2022-09-27T13:00:04;21.90;90.70
8664;DHT22;4369;47.842;13.096;2022-09-27T13:03:13;24.60;81.20
8664;DHT22;4369;47.842;13.096;2022-09-27T13:06:05;26.10;71.00
8664;DHT22;4369;47.842;13.096;2022-09-27T13:09:05;27.10;60.60
8664;DHT22;4369;47.842;13.096;2022-09-27T13:11:42;25.80;57.20
8664;DHT22;4369;47.842;13.096;2022-09-27T13:14:17;20.80;66.90
8664;DHT22;4369;47.842;13.096;2022-09-27T13:16:46;17.90;79.70
8664;DHT22;4369;47.842;13.096;2022-09-27T13:19:36;21.30;78.90
8664;DHT22;4369;47.842;13.096;2022-09-27T13:22:04;25.00;63.80
8664;DHT22;4369;47.842;13.096;2022-09-27T13:24:41;26.60;58.40
8664;DHT22;4369;47.842;13.096;2022-09-27T13:27:42;25.40;55.80
8664;DHT22;4369;47.842;13.096;2022-09-27T13:33:41;27.20;54.50
8664;DHT22;4369;47.842;13.096;2022-09-27T13:36:30;29.00;51.00
8664;DHT22;4369;47.842;13.096;2022-09-27T13:42:07;31.40;43.90
8664;DHT22;4369;47.842;13.096;2022-09-27T13:44:42;31.10;42.50
8664;DHT22;4369;47.842;13.096;2022-09-27T13:47:19;29.70;43.00
8664;DHT22;4369;47.842;13.096;2022-09-27T13:49:53;29.10;44.50
8664;DHT22;4369;47.842;13.096;2022-09-27T13:52:26;26.10;47.00
8664;DHT22;4369;47.842;13.096;2022-09-27T13:55:00;24.00;49.50
8664;DHT22;4369;47.842;13.096;2022-09-27T13:57:50;21.40;53.50
8664;DHT22;4369;47.842;13.096;2022-09-27T14:00:21;19.20;59.90
8664;DHT22;4369;47.842;13.096;2022-09-27T14:02:59;18.60;64.90
8664;DHT22;4369;47.842;13.096;2022-09-27T14:05:31;17.80;68.40
8664;DHT22;4369;47.842;13.096;2022-09-27T14:08:02;18.20;70.30
8664;DHT22;4369;47.842;13.096;2022-09-27T14:10:30;20.00;69.40
8664;DHT22;4369;47.842;13.096;2022-09-27T14:13:00;21.20;60.00
8664;DHT22;4369;47.842;13.096;2022-09-27T14:15:30;20.90;59.10
8664;DHT22;4369;47.842;13.096;2022-09-27T14:17:58;21.30;64.00
8664;DHT22;4369;47.842;13.096;2022-09-27T14:20:30;22.80;58.20
8664;DHT22;4369;47.842;13.096;2022-09-27T14:22:57;23.00;55.50
8664;DHT22;4369;47.842;13.096;2022-09-27T14:25:25;22.30;58.00
8664;DHT22;4369;47.842;13.096;2022-09-27T14:27:51;21.50;59.00
8664;DHT22;4369;47.842;13.096;2022-09-27T14:30:22;19.40;59.70
8664;DHT22;4369;47.842;13.096;2022-09-27T14:32:50;18.10;66.40
8664;DHT22;4369;47.842;13.096;2022-09-27T14:35:20;17.00;70.70
8664;DHT22;4369;47.842;13.096;2022-09-27T14:38:06;16.40;74.10
8664;DHT22;4369;47.842;13.096;2022-09-27T14:40:37;15.20;78.90
8664;DHT22;4369;47.842;13.096;2022-09-27T14:43:12;14.90;85.90
8664;DHT22;4369;47.842;13.096;2022-09-27T14:45:43;14.70;91.20
8664;DHT22;4369;47.842;13.096;2022-09-27T14:48:20;14.60;93.50
8664;DHT22;4369;47.842;13.096;2022-09-27T14:50:55;14.50;95.20
8664;DHT22;4369;47.842;13.096;2022-09-27T14:53:26;14.60;96.40
8664;DHT22;4369;47.842;13.096;2022-09-27T14:55:54;14.30;93.00
8664;DHT22;4369;47.842;13.096;2022-09-27T14:58:24;14.00;93.60
8664;DHT22;4369;47.842;13.096;2022-09-27T15:00:55;14.00;96.60
8664;DHT22;4369;47.842;13.096;2022-09-27T15:03:29;13.80;93.40
8664;DHT22;4369;47.842;13.096;2022-09-27T15:05:57;13.80;94.80
8664;DHT22;4369;47.842;13.096;2022-09-27T15:08:27;13.70;94.10
8664;DHT22;4369;47.842;13.096;2022-09-27T15:10:58;13.60;94.40
8664;DHT22;4369;47.842;13.096;2022-09-27T15:13:25;13.40;95.60
8664;DHT22;4369;47.842;13.096;2022-09-27T15:15:54;13.40;95.30
8664;DHT22;4369;47.842;13.096;2022-09-27T15:18:40;13.20;97.00
8664;DHT22;4369;47.842;13.096;2022-09-27T15:21:08;13.20;96.50
8664;DHT22;4369;47.842;13.096;2022-09-27T15:23:37;13.10;96.70
8664;DHT22;4369;47.842;13.096;2022-09-27T15:26:09;13.10;98.50
8664;DHT22;4369;47.842;13.096;2022-09-27T15:28:37;13.00;99.50
8664;DHT22;4369;47.842;13.096;2022-09-27T15:31:09;12.80;99.00
8664;DHT22;4369;47.842;13.096;2022-09-27T15:33:36;12.80;99.90
8664;DHT22;4369;47.842;13.096;2022-09-27T15:36:05;12.70;99.90
8664;DHT22;4369;47.842;13.096;2022-09-27T15:38:33;12.60;99.90
8664;DHT22;4369;47.842;13.096;2022-09-27T15:41:05;12.50;99.90
8664;DHT22;4369;47.842;13.096;2022-09-27T15:43:35;12.50;99.90
8664;DHT22;4369;47.842;13.096;2022-09-27T15:49:27;12.20;99.90
8664;DHT22;4369;47.842;13.096;2022-09-27T15:52:00;12.00;99.90
8664;DHT22;4369;47.842;13.096;2022-09-27T15:54:29;11.90;99.90
8664;DHT22;4369;47.842;13.096;2022-09-27T15:57:00;11.90;99.90
8664;DHT22;4369;47.842;13.096;2022-09-27T15:59:30;11.90;99.90
8664;DHT22;4369;47.842;13.096;2022-09-27T16:02:00;12.00;99.90
8664;DHT22;4369;47.842;13.096;2022-09-27T16:04:28;12.00;99.90
8664;DHT22;4369;47.842;13.096;2022-09-27T16:06:58;11.80;99.90
8664;DHT22;4369;47.842;13.096;2022-09-27T16:09:25;11.80;99.90
8664;DHT22;4369;47.842;13.096;2022-09-27T16:11:52;11.80;99.90
8664;DHT22;4369;47.842;13.096;2022-09-27T16:14:19;11.90;99.90
8664;DHT22;4369;47.842;13.096;2022-09-27T16:16:48;12.00;99.90
8664;DHT22;4369;47.842;13.096;2022-09-27T16:19:16;12.10;99.90
8664;DHT22;4369;47.842;13.096;2022-09-27T16:21:44;12.10;99.90
8664;DHT22;4369;47.842;13.096;2022-09-27T16:24:13;12.10;99.90
8664;DHT22;4369;47.842;13.096;2022-09-27T16:26:40;12.00;99.90
8664;DHT22;4369;47.842;13.096;2022-09-27T16:29:09;12.00;99.90
8664;DHT22;4369;47.842;13.096;2022-09-27T16:31:37;12.00;99.90
8664;DHT22;4369;47.842;13.096;2022-09-27T16:34:04;12.00;99.90
8664;DHT22;4369;47.842;13.096;2022-09-27T16:36:31;12.10;99.90
8664;DHT22;4369;47.842;13.096;2022-09-27T16:38:59;12.10;99.90